首页
METAR-TAF:

METAR-TAF

机场 :

卢森堡-芬德尔国际机场

卢森堡, 卢森堡

纬度: 49-37N, 经度: 006-13E, 海拔: 376米

当前天气观测

该预报发布于22分钟前的13:50 UTC
风速11节,风向,在东北东转东南之间变化
温度 2°C
湿度 75%
气压 1004 hPa
能见度10公里或以上
多云层高于2200英尺

METAR: ELLX 201350Z 09011KT 050V120 9999 BKN022 02/M02 Q1004 NOSIG

时间: 15:12 (14:12 UTC)

预报

该预报发布于3小时和12分钟前的11:00 UTC
预报有效从20日的 12点(UTC)到 21日的 18点(UTC)
风速9节,风向
能见度10公里或以上
多云层高于2000英尺
短暂存在
从 20日的 18点(UTC)到 21日的 06点(UTC)
能見度: 5000
散云层高于500英尺
多云层高于1200英尺
轻雾, 小雨
短暂存在
从 21日的 03点(UTC)到 21日的 08点(UTC)
能見度: 1200
多云层高于300英尺
轻雾
成为
从 21日的 08点(UTC)到 21日的 10点(UTC)
多云层高于2500英尺
短暂存在
从 21日的 10点(UTC)到 21日的 18点(UTC)
散云层高于2500英尺

TAF: ELLX 201100Z 2012/2118 10009KT 9999 BKN020 TEMPO 2018/2106 5000 BR -RA SCT005 BKN012 TEMPO 2103/2108 1200 BR BKN003 BECMG 2108/2110 BKN025 TEMPO 2110/2118 SCT025

超过4000个机场的气象观测和天气预报(METAR&TAF报告)。

可查询的气象台以黄色和红色小点在地图上表示。

将鼠标移到小点上方,可查看气象台名称。

然后点击查看天气观测和预报。

如需切换地图:点击带黑十字的绿色按钮放大地图;点击带横线的绿色按钮缩小地图;或者点击绿色箭头查看邻近地区的地图。


METAR-TAF: